sensor_id;sensor_type;location;lat;lon;timestamp;temperature;humidity
25108;DHT22;13090;53.422;7.670;2022-08-25T00:04:09;24.30;52.80
25108;DHT22;13090;53.422;7.670;2022-08-25T00:09:18;24.30;53.00
25108;DHT22;13090;53.422;7.670;2022-08-25T00:14:25;24.30;53.40
25108;DHT22;13090;53.422;7.670;2022-08-25T00:19:31;24.20;53.50
25108;DHT22;13090;53.422;7.670;2022-08-25T00:24:37;24.20;53.90
25108;DHT22;13090;53.422;7.670;2022-08-25T00:29:39;24.10;53.60
25108;DHT22;13090;53.422;7.670;2022-08-25T00:34:41;24.10;53.80
25108;DHT22;13090;53.422;7.670;2022-08-25T00:39:45;24.10;53.70
25108;DHT22;13090;53.422;7.670;2022-08-25T00:44:48;24.10;53.90
25108;DHT22;13090;53.422;7.670;2022-08-25T00:49:53;24.10;53.70
25108;DHT22;13090;53.422;7.670;2022-08-25T00:55:01;23.90;54.10
25108;DHT22;13090;53.422;7.670;2022-08-25T01:00:14;23.90;54.20
25108;DHT22;13090;53.422;7.670;2022-08-25T01:05:18;23.80;54.70
25108;DHT22;13090;53.422;7.670;2022-08-25T01:10:23;23.70;54.60
25108;DHT22;13090;53.422;7.670;2022-08-25T01:15:26;23.60;54.80
25108;DHT22;13090;53.422;7.670;2022-08-25T01:20:30;23.50;54.80
25108;DHT22;13090;53.422;7.670;2022-08-25T01:25:41;23.50;54.90
25108;DHT22;13090;53.422;7.670;2022-08-25T01:30:47;23.40;55.60
25108;DHT22;13090;53.422;7.670;2022-08-25T01:35:50;23.30;55.20
25108;DHT22;13090;53.422;7.670;2022-08-25T01:40:54;23.20;55.30
25108;DHT22;13090;53.422;7.670;2022-08-25T01:45:56;23.20;55.40
25108;DHT22;13090;53.422;7.670;2022-08-25T01:50:59;23.20;55.50
25108;DHT22;13090;53.422;7.670;2022-08-25T01:56:10;23.20;55.60
25108;DHT22;13090;53.422;7.670;2022-08-25T02:01:14;23.10;56.20
25108;DHT22;13090;53.422;7.670;2022-08-25T02:06:21;23.10;55.90
25108;DHT22;13090;53.422;7.670;2022-08-25T02:11:34;23.10;56.20
25108;DHT22;13090;53.422;7.670;2022-08-25T02:16:39;23.00;56.20
25108;DHT22;13090;53.422;7.670;2022-08-25T02:21:43;22.90;56.30
25108;DHT22;13090;53.422;7.670;2022-08-25T02:26:47;22.90;56.20
25108;DHT22;13090;53.422;7.670;2022-08-25T02:31:49;22.90;56.60
25108;DHT22;13090;53.422;7.670;2022-08-25T02:36:52;22.80;56.60
25108;DHT22;13090;53.422;7.670;2022-08-25T02:41:55;22.80;56.80
25108;DHT22;13090;53.422;7.670;2022-08-25T02:46:58;22.80;57.00
25108;DHT22;13090;53.422;7.670;2022-08-25T02:52:00;22.80;56.90
25108;DHT22;13090;53.422;7.670;2022-08-25T02:57:06;22.80;57.10
25108;DHT22;13090;53.422;7.670;2022-08-25T03:02:08;22.70;57.30
25108;DHT22;13090;53.422;7.670;2022-08-25T03:07:11;22.70;57.10
25108;DHT22;13090;53.422;7.670;2022-08-25T03:12:15;22.70;57.10
25108;DHT22;13090;53.422;7.670;2022-08-25T03:17:17;22.60;57.30
25108;DHT22;13090;53.422;7.670;2022-08-25T03:22:19;22.60;57.20
25108;DHT22;13090;53.422;7.670;2022-08-25T03:27:23;22.60;57.20
25108;DHT22;13090;53.422;7.670;2022-08-25T03:32:26;22.50;57.50
25108;DHT22;13090;53.422;7.670;2022-08-25T03:37:28;22.50;57.40
25108;DHT22;13090;53.422;7.670;2022-08-25T03:47:34;22.50;57.50
25108;DHT22;13090;53.422;7.670;2022-08-25T03:52:37;22.40;57.50
25108;DHT22;13090;53.422;7.670;2022-08-25T03:57:45;22.20;57.60
25108;DHT22;13090;53.422;7.670;2022-08-25T04:02:47;22.10;57.90
25108;DHT22;13090;53.422;7.670;2022-08-25T04:07:50;21.90;58.20
25108;DHT22;13090;53.422;7.670;2022-08-25T04:12:54;21.80;58.50
25108;DHT22;13090;53.422;7.670;2022-08-25T04:17:56;21.70;58.90
25108;DHT22;13090;53.422;7.670;2022-08-25T04:22:59;21.50;59.30
25108;DHT22;13090;53.422;7.670;2022-08-25T04:28:03;21.40;60.10
25108;DHT22;13090;53.422;7.670;2022-08-25T04:33:05;21.20;60.30
25108;DHT22;13090;53.422;7.670;2022-08-25T04:38:08;21.10;61.20
25108;DHT22;13090;53.422;7.670;2022-08-25T04:43:11;21.00;60.50
25108;DHT22;13090;53.422;7.670;2022-08-25T04:48:14;21.00;60.80
25108;DHT22;13090;53.422;7.670;2022-08-25T04:53:17;21.10;61.60
25108;DHT22;13090;53.422;7.670;2022-08-25T04:58:21;21.30;62.20
25108;DHT22;13090;53.422;7.670;2022-08-25T05:03:23;21.50;61.90
25108;DHT22;13090;53.422;7.670;2022-08-25T05:08:26;21.90;61.70
25108;DHT22;13090;53.422;7.670;2022-08-25T05:13:30;22.30;61.50
25108;DHT22;13090;53.422;7.670;2022-08-25T05:18:33;22.80;61.10
25108;DHT22;13090;53.422;7.670;2022-08-25T05:23:36;23.40;60.50
25108;DHT22;13090;53.422;7.670;2022-08-25T05:28:41;24.10;59.90
25108;DHT22;13090;53.422;7.670;2022-08-25T05:33:43;24.70;59.10
25108;DHT22;13090;53.422;7.670;2022-08-25T05:38:46;25.30;58.40
25108;DHT22;13090;53.422;7.670;2022-08-25T05:43:50;25.90;57.80
25108;DHT22;13090;53.422;7.670;2022-08-25T05:48:53;26.50;57.20
25108;DHT22;13090;53.422;7.670;2022-08-25T05:53:55;26.90;56.30
25108;DHT22;13090;53.422;7.670;2022-08-25T05:58:59;27.10;55.80
25108;DHT22;13090;53.422;7.670;2022-08-25T06:04:02;27.30;55.30
25108;DHT22;13090;53.422;7.670;2022-08-25T06:09:04;27.30;55.30
25108;DHT22;13090;53.422;7.670;2022-08-25T06:14:09;27.40;55.60
25108;DHT22;13090;53.422;7.670;2022-08-25T06:19:12;27.50;55.30
25108;DHT22;13090;53.422;7.670;2022-08-25T06:24:15;27.70;55.20
25108;DHT22;13090;53.422;7.670;2022-08-25T06:29:19;27.90;55.00
25108;DHT22;13090;53.422;7.670;2022-08-25T06:34:22;28.00;54.80
25108;DHT22;13090;53.422;7.670;2022-08-25T06:39:25;28.10;54.90
25108;DHT22;13090;53.422;7.670;2022-08-25T06:44:29;28.20;55.50
25108;DHT22;13090;53.422;7.670;2022-08-25T06:49:31;28.30;54.80
25108;DHT22;13090;53.422;7.670;2022-08-25T06:54:37;28.50;54.50
25108;DHT22;13090;53.422;7.670;2022-08-25T06:59:41;28.60;54.40
25108;DHT22;13090;53.422;7.670;2022-08-25T07:04:43;28.80;54.40
25108;DHT22;13090;53.422;7.670;2022-08-25T07:09:46;28.90;53.90
25108;DHT22;13090;53.422;7.670;2022-08-25T07:14:50;29.10;53.70
25108;DHT22;13090;53.422;7.670;2022-08-25T07:20:13;29.20;53.30
25108;DHT22;13090;53.422;7.670;2022-08-25T07:25:16;29.30;53.40
25108;DHT22;13090;53.422;7.670;2022-08-25T07:30:20;29.40;53.70
25108;DHT22;13090;53.422;7.670;2022-08-25T07:35:23;29.60;53.80
25108;DHT22;13090;53.422;7.670;2022-08-25T07:40:29;29.70;52.70
25108;DHT22;13090;53.422;7.670;2022-08-25T07:45:36;30.00;52.80
25108;DHT22;13090;53.422;7.670;2022-08-25T07:50:51;30.10;52.10
25108;DHT22;13090;53.422;7.670;2022-08-25T07:55:53;30.20;51.60
25108;DHT22;13090;53.422;7.670;2022-08-25T08:00:57;30.30;52.40
25108;DHT22;13090;53.422;7.670;2022-08-25T08:06:00;30.40;51.90
25108;DHT22;13090;53.422;7.670;2022-08-25T08:11:02;30.60;51.70
25108;DHT22;13090;53.422;7.670;2022-08-25T08:16:09;30.70;51.20
25108;DHT22;13090;53.422;7.670;2022-08-25T08:21:16;30.70;50.90
25108;DHT22;13090;53.422;7.670;2022-08-25T08:26:21;30.80;51.30
25108;DHT22;13090;53.422;7.670;2022-08-25T08:31:44;31.00;50.90
25108;DHT22;13090;53.422;7.670;2022-08-25T08:36:50;31.10;50.80
25108;DHT22;13090;53.422;7.670;2022-08-25T08:42:03;31.30;50.70
25108;DHT22;13090;53.422;7.670;2022-08-25T08:47:23;31.40;50.20
25108;DHT22;13090;53.422;7.670;2022-08-25T08:52:37;31.60;49.50
25108;DHT22;13090;53.422;7.670;2022-08-25T08:57:46;31.70;49.30
25108;DHT22;13090;53.422;7.670;2022-08-25T09:03:01;31.70;48.90
25108;DHT22;13090;53.422;7.670;2022-08-25T09:08:10;31.80;49.70
25108;DHT22;13090;53.422;7.670;2022-08-25T09:13:21;31.90;48.80
25108;DHT22;13090;53.422;7.670;2022-08-25T09:18:34;32.00;48.80
25108;DHT22;13090;53.422;7.670;2022-08-25T09:24:12;32.10;49.60
25108;DHT22;13090;53.422;7.670;2022-08-25T09:29:22;32.30;48.40
25108;DHT22;13090;53.422;7.670;2022-08-25T09:34:32;32.50;48.70
25108;DHT22;13090;53.422;7.670;2022-08-25T09:39:35;32.80;47.70
25108;DHT22;13090;53.422;7.670;2022-08-25T09:44:40;33.00;47.60
25108;DHT22;13090;53.422;7.670;2022-08-25T09:49:47;33.00;46.60
25108;DHT22;13090;53.422;7.670;2022-08-25T09:54:50;33.10;46.60
25108;DHT22;13090;53.422;7.670;2022-08-25T09:59:54;33.10;46.90
25108;DHT22;13090;53.422;7.670;2022-08-25T10:05:17;33.20;46.80
25108;DHT22;13090;53.422;7.670;2022-08-25T10:10:26;33.20;44.90
25108;DHT22;13090;53.422;7.670;2022-08-25T10:15:36;33.20;44.80
25108;DHT22;13090;53.422;7.670;2022-08-25T10:20:40;33.20;45.60
25108;DHT22;13090;53.422;7.670;2022-08-25T10:25:48;33.10;45.50
25108;DHT22;13090;53.422;7.670;2022-08-25T10:31:08;33.20;45.10
25108;DHT22;13090;53.422;7.670;2022-08-25T10:36:19;33.30;44.10
25108;DHT22;13090;53.422;7.670;2022-08-25T10:41:44;33.40;44.10
25108;DHT22;13090;53.422;7.670;2022-08-25T10:47:02;33.30;44.20
25108;DHT22;13090;53.422;7.670;2022-08-25T10:52:13;33.30;43.50
25108;DHT22;13090;53.422;7.670;2022-08-25T10:57:22;33.30;43.40
25108;DHT22;13090;53.422;7.670;2022-08-25T11:02:45;33.30;43.40
25108;DHT22;13090;53.422;7.670;2022-08-25T11:07:56;33.40;42.70
25108;DHT22;13090;53.422;7.670;2022-08-25T11:13:04;33.40;43.30
25108;DHT22;13090;53.422;7.670;2022-08-25T11:18:13;33.30;43.20
25108;DHT22;13090;53.422;7.670;2022-08-25T11:23:23;33.30;42.50
25108;DHT22;13090;53.422;7.670;2022-08-25T11:28:30;33.30;41.70
25108;DHT22;13090;53.422;7.670;2022-08-25T11:33:37;33.40;42.70
25108;DHT22;13090;53.422;7.670;2022-08-25T11:38:53;33.50;42.60
25108;DHT22;13090;53.422;7.670;2022-08-25T11:44:29;33.50;41.60
25108;DHT22;13090;53.422;7.670;2022-08-25T11:49:50;33.40;41.90
25108;DHT22;13090;53.422;7.670;2022-08-25T11:54:55;33.40;40.60
25108;DHT22;13090;53.422;7.670;2022-08-25T12:00:09;33.40;41.60
25108;DHT22;13090;53.422;7.670;2022-08-25T12:05:50;33.40;42.40
25108;DHT22;13090;53.422;7.670;2022-08-25T12:10:57;33.30;42.30
25108;DHT22;13090;53.422;7.670;2022-08-25T12:16:00;33.30;42.00
25108;DHT22;13090;53.422;7.670;2022-08-25T12:21:14;33.10;41.70
25108;DHT22;13090;53.422;7.670;2022-08-25T12:26:28;32.90;40.70
25108;DHT22;13090;53.422;7.670;2022-08-25T12:37:12;32.90;42.20
25108;DHT22;13090;53.422;7.670;2022-08-25T12:42:27;32.70;42.80
25108;DHT22;13090;53.422;7.670;2022-08-25T12:47:30;32.50;43.50
25108;DHT22;13090;53.422;7.670;2022-08-25T12:52:36;32.30;43.80
25108;DHT22;13090;53.422;7.670;2022-08-25T12:57:44;32.20;44.30
25108;DHT22;13090;53.422;7.670;2022-08-25T13:09:06;32.00;45.00
25108;DHT22;13090;53.422;7.670;2022-08-25T13:14:16;31.90;46.20
25108;DHT22;13090;53.422;7.670;2022-08-25T13:19:20;31.90;44.60
25108;DHT22;13090;53.422;7.670;2022-08-25T13:24:25;31.80;44.80
25108;DHT22;13090;53.422;7.670;2022-08-25T13:29:31;31.70;45.40
25108;DHT22;13090;53.422;7.670;2022-08-25T13:34:40;31.70;45.40
25108;DHT22;13090;53.422;7.670;2022-08-25T13:39:44;31.70;44.80
25108;DHT22;13090;53.422;7.670;2022-08-25T13:45:01;31.70;45.40
25108;DHT22;13090;53.422;7.670;2022-08-25T13:50:16;31.80;44.90
25108;DHT22;13090;53.422;7.670;2022-08-25T13:55:24;31.90;45.40
25108;DHT22;13090;53.422;7.670;2022-08-25T14:00:33;31.90;44.00
25108;DHT22;13090;53.422;7.670;2022-08-25T14:05:38;32.00;44.10
25108;DHT22;13090;53.422;7.670;2022-08-25T14:10:44;32.00;44.10
25108;DHT22;13090;53.422;7.670;2022-08-25T14:15:48;31.90;43.90
25108;DHT22;13090;53.422;7.670;2022-08-25T14:20:52;31.90;43.80
25108;DHT22;13090;53.422;7.670;2022-08-25T14:25:56;31.90;44.10
25108;DHT22;13090;53.422;7.670;2022-08-25T14:31:03;31.80;44.70
25108;DHT22;13090;53.422;7.670;2022-08-25T14:36:07;31.80;44.40
25108;DHT22;13090;53.422;7.670;2022-08-25T14:41:10;31.90;43.90
25108;DHT22;13090;53.422;7.670;2022-08-25T14:46:17;31.90;44.00
25108;DHT22;13090;53.422;7.670;2022-08-25T14:51:21;31.90;43.70
25108;DHT22;13090;53.422;7.670;2022-08-25T14:56:25;32.00;44.30
25108;DHT22;13090;53.422;7.670;2022-08-25T15:01:31;32.10;43.70
25108;DHT22;13090;53.422;7.670;2022-08-25T15:06:35;32.10;43.80
25108;DHT22;13090;53.422;7.670;2022-08-25T15:11:41;32.00;44.00
25108;DHT22;13090;53.422;7.670;2022-08-25T15:16:47;32.00;43.20
25108;DHT22;13090;53.422;7.670;2022-08-25T15:21:50;32.00;43.30
25108;DHT22;13090;53.422;7.670;2022-08-25T15:26:55;32.10;42.80
25108;DHT22;13090;53.422;7.670;2022-08-25T15:32:01;32.10;43.40
25108;DHT22;13090;53.422;7.670;2022-08-25T15:37:07;32.10;44.20
25108;DHT22;13090;53.422;7.670;2022-08-25T15:42:11;32.10;43.80
25108;DHT22;13090;53.422;7.670;2022-08-25T15:47:15;32.00;44.30
25108;DHT22;13090;53.422;7.670;2022-08-25T15:52:18;31.90;44.00
25108;DHT22;13090;53.422;7.670;2022-08-25T15:57:20;31.80;44.30
25108;DHT22;13090;53.422;7.670;2022-08-25T16:02:27;31.70;44.10
25108;DHT22;13090;53.422;7.670;2022-08-25T16:07:29;31.60;44.20
25108;DHT22;13090;53.422;7.670;2022-08-25T16:12:32;31.60;44.90
25108;DHT22;13090;53.422;7.670;2022-08-25T16:17:36;31.60;44.70
25108;DHT22;13090;53.422;7.670;2022-08-25T16:22:43;31.60;45.20
25108;DHT22;13090;53.422;7.670;2022-08-25T16:27:51;31.50;45.00
25108;DHT22;13090;53.422;7.670;2022-08-25T16:33:04;31.30;45.30
25108;DHT22;13090;53.422;7.670;2022-08-25T16:38:20;31.30;46.40
25108;DHT22;13090;53.422;7.670;2022-08-25T16:43:40;31.10;46.30
25108;DHT22;13090;53.422;7.670;2022-08-25T16:49:05;31.10;46.60
25108;DHT22;13090;53.422;7.670;2022-08-25T16:54:13;31.10;46.90
25108;DHT22;13090;53.422;7.670;2022-08-25T16:59:28;31.00;47.60
25108;DHT22;13090;53.422;7.670;2022-08-25T17:04:40;30.90;48.10
25108;DHT22;13090;53.422;7.670;2022-08-25T17:09:49;30.80;48.00
25108;DHT22;13090;53.422;7.670;2022-08-25T17:14:56;30.70;48.00
25108;DHT22;13090;53.422;7.670;2022-08-25T17:20:23;30.60;48.30
25108;DHT22;13090;53.422;7.670;2022-08-25T17:25:37;30.50;48.90
25108;DHT22;13090;53.422;7.670;2022-08-25T17:30:47;30.40;49.00
25108;DHT22;13090;53.422;7.670;2022-08-25T17:35:54;30.30;49.40
25108;DHT22;13090;53.422;7.670;2022-08-25T17:40:59;30.20;49.90
25108;DHT22;13090;53.422;7.670;2022-08-25T17:46:02;30.00;49.70
25108;DHT22;13090;53.422;7.670;2022-08-25T17:51:08;30.00;50.00
25108;DHT22;13090;53.422;7.670;2022-08-25T17:56:12;29.90;50.50
25108;DHT22;13090;53.422;7.670;2022-08-25T18:01:17;29.80;50.40
25108;DHT22;13090;53.422;7.670;2022-08-25T18:06:31;29.60;50.60
25108;DHT22;13090;53.422;7.670;2022-08-25T18:11:46;29.50;51.10
25108;DHT22;13090;53.422;7.670;2022-08-25T18:16:58;29.40;51.90
25108;DHT22;13090;53.422;7.670;2022-08-25T18:22:02;29.30;51.10
25108;DHT22;13090;53.422;7.670;2022-08-25T18:27:05;29.20;51.20
25108;DHT22;13090;53.422;7.670;2022-08-25T18:32:26;29.20;51.40
25108;DHT22;13090;53.422;7.670;2022-08-25T18:37:31;29.00;51.50
25108;DHT22;13090;53.422;7.670;2022-08-25T18:42:34;28.90;52.70
25108;DHT22;13090;53.422;7.670;2022-08-25T18:47:37;28.70;53.10
25108;DHT22;13090;53.422;7.670;2022-08-25T18:52:41;28.50;53.90
25108;DHT22;13090;53.422;7.670;2022-08-25T18:57:44;28.40;54.20
25108;DHT22;13090;53.422;7.670;2022-08-25T19:02:47;28.20;54.10
25108;DHT22;13090;53.422;7.670;2022-08-25T19:07:51;28.10;54.20
25108;DHT22;13090;53.422;7.670;2022-08-25T19:12:54;28.00;54.80
25108;DHT22;13090;53.422;7.670;2022-08-25T19:17:58;27.90;54.90
25108;DHT22;13090;53.422;7.670;2022-08-25T19:23:02;27.70;55.50
25108;DHT22;13090;53.422;7.670;2022-08-25T19:28:10;27.60;56.10
25108;DHT22;13090;53.422;7.670;2022-08-25T19:33:13;27.40;57.50
25108;DHT22;13090;53.422;7.670;2022-08-25T19:38:37;27.30;57.50
25108;DHT22;13090;53.422;7.670;2022-08-25T19:43:42;27.20;57.40
25108;DHT22;13090;53.422;7.670;2022-08-25T19:48:58;27.10;57.60
25108;DHT22;13090;53.422;7.670;2022-08-25T19:54:09;27.10;57.70
25108;DHT22;13090;53.422;7.670;2022-08-25T19:59:12;27.00;57.90
25108;DHT22;13090;53.422;7.670;2022-08-25T20:04:15;26.90;57.80
25108;DHT22;13090;53.422;7.670;2022-08-25T20:09:19;26.80;58.20
25108;DHT22;13090;53.422;7.670;2022-08-25T20:14:42;26.80;58.30
25108;DHT22;13090;53.422;7.670;2022-08-25T20:19:44;26.70;58.40
25108;DHT22;13090;53.422;7.670;2022-08-25T20:24:48;26.60;58.40
25108;DHT22;13090;53.422;7.670;2022-08-25T20:29:57;26.50;58.50
25108;DHT22;13090;53.422;7.670;2022-08-25T20:35:00;26.40;58.40
25108;DHT22;13090;53.422;7.670;2022-08-25T20:40:06;26.40;58.70
25108;DHT22;13090;53.422;7.670;2022-08-25T20:45:11;26.30;59.00
25108;DHT22;13090;53.422;7.670;2022-08-25T20:50:15;26.20;59.00
25108;DHT22;13090;53.422;7.670;2022-08-25T20:55:20;26.10;59.00
25108;DHT22;13090;53.422;7.670;2022-08-25T21:00:22;26.00;59.50
25108;DHT22;13090;53.422;7.670;2022-08-25T21:05:26;26.00;59.80
25108;DHT22;13090;53.422;7.670;2022-08-25T21:10:30;26.00;59.90
25108;DHT22;13090;53.422;7.670;2022-08-25T21:15:32;25.90;59.70
25108;DHT22;13090;53.422;7.670;2022-08-25T21:20:35;25.80;59.70
25108;DHT22;13090;53.422;7.670;2022-08-25T21:25:40;25.80;60.60
25108;DHT22;13090;53.422;7.670;2022-08-25T21:30:43;25.70;61.20
25108;DHT22;13090;53.422;7.670;2022-08-25T21:35:48;25.60;61.20
25108;DHT22;13090;53.422;7.670;2022-08-25T21:40:53;25.60;60.80
25108;DHT22;13090;53.422;7.670;2022-08-25T21:45:55;25.50;61.30
25108;DHT22;13090;53.422;7.670;2022-08-25T21:51:05;25.50;61.50
25108;DHT22;13090;53.422;7.670;2022-08-25T21:56:15;25.40;61.70
25108;DHT22;13090;53.422;7.670;2022-08-25T22:01:19;25.40;61.40
25108;DHT22;13090;53.422;7.670;2022-08-25T22:06:23;25.40;61.90
25108;DHT22;13090;53.422;7.670;2022-08-25T22:11:27;25.30;61.60
25108;DHT22;13090;53.422;7.670;2022-08-25T22:16:38;25.20;61.60
25108;DHT22;13090;53.422;7.670;2022-08-25T22:21:42;25.10;61.50
25108;DHT22;13090;53.422;7.670;2022-08-25T22:26:46;25.10;61.90
25108;DHT22;13090;53.422;7.670;2022-08-25T22:31:50;25.00;62.00
25108;DHT22;13090;53.422;7.670;2022-08-25T22:36:54;24.90;61.80
25108;DHT22;13090;53.422;7.670;2022-08-25T22:42:02;24.90;62.00
25108;DHT22;13090;53.422;7.670;2022-08-25T22:47:06;24.80;62.20
25108;DHT22;13090;53.422;7.670;2022-08-25T22:52:08;24.80;62.30
25108;DHT22;13090;53.422;7.670;2022-08-25T22:57:15;24.80;62.60
25108;DHT22;13090;53.422;7.670;2022-08-25T23:02:19;24.70;62.60
25108;DHT22;13090;53.422;7.670;2022-08-25T23:07:22;24.70;62.60
25108;DHT22;13090;53.422;7.670;2022-08-25T23:12:26;24.70;62.60
25108;DHT22;13090;53.422;7.670;2022-08-25T23:17:28;24.70;62.80
25108;DHT22;13090;53.422;7.670;2022-08-25T23:22:30;24.60;62.50
25108;DHT22;13090;53.422;7.670;2022-08-25T23:27:35;24.70;62.40
25108;DHT22;13090;53.422;7.670;2022-08-25T23:32:37;24.70;62.50
25108;DHT22;13090;53.422;7.670;2022-08-25T23:37:40;24.70;62.30
25108;DHT22;13090;53.422;7.670;2022-08-25T23:42:46;24.70;62.50
25108;DHT22;13090;53.422;7.670;2022-08-25T23:47:48;24.60;62.60
25108;DHT22;13090;53.422;7.670;2022-08-25T23:52:51;24.60;62.40
25108;DHT22;13090;53.422;7.670;2022-08-25T23:57:54;24.60;62.50
